Port Alsworth, AK (99653)

4:31 AM AKDT on July 28, 2016 (GMT -0800)
Sparrevohn | | Change Station

Elev 1588 ft 61.10 °N, 155.57 °W | Updated 36 minutes ago

Mostly Cloudy
Mostly Cloudy
56 °F
Feels Like 56 °F
N
4
Wind Variable Wind from North

Today
High -- | Low -- °F
--% Chance of Precip.
Yesterday
High -- | Low -- °F
Precip. -- in
Pressure 29.82 in
Visibility 10.0 miles
Clouds Mostly Cloudy 8500 ft
Dew Point 49 °F
Humidity 79%
Rainfall 0.00 in
Snow Depth Not available.
5:48 AM 10:58 PM
Waning Crescent, 32% visible
METAR PASV 281155Z AUTO 01003KT 10SM BKN085 13/10 A2985 RMK AO2 SLP098 70001 T01320096 10153 20129 54001
Pressure 29.82 in
Visibility 10.0 miles
Clouds Mostly Cloudy 8500 ft
Dew Point 49 °F
Humidity 79%
Rainfall 0.00 in
Snow Depth Not available.
5:48 AM 10:58 PM
Waning Crescent, 32% visible
METAR PASV 281155Z AUTO 01003KT 10SM BKN085 13/10 A2985 RMK AO2 SLP098 70001 T01320096 10153 20129 54001

10-Day Weather Forecast

Almanac

Astronomy

Jul. 28, 2016 Rise Set
Actual Time
Civil Twilight
Nautical Twilight
Astronomical Twilight
Moon
Length of Visible Light
Length of Day
Tomorrow will be .
, % of the Moon is Illuminated

Today's Extremes

State Highs State Lows

Community

WunderPhotos

Upload Photos

1,928,099 photos uploaded!

WunderBlog® & News

Nearby

Air Quality

  Air Quality AQ Index Pollutant
Not available.

Snow Depth

Station Depth Elevation

Earthquake Activity

City Distance Mag. Time & Date
Minimum magnitude displayed is 2.5.

Coastal Water Temperatures

Place Temperature

Stations

Nearby Weather Stations

Station Location Temp. Windchill Dew Point Humidity Wind Precip. Elev Updated Type
                   

Watches & Warnings

There are currently no watches in effect.